Terminal Aerodrome Forecast
Issued by NWS Cleveland, OH

Home | Current Version | Previous Version | Text Only | Print | Product List | Glossary Off
Versions: 1 2 3 4 5 6 7 8 9 10 11 12 13 14 15 16 17

489
FTUS41 KCLE 210523
TAFERI
TAF
KERI 210523Z 2106/2206 15014G20KT P6SM SCT020 BKN120
     FM211600 16014KT 6SM -SHRA VCTS BKN035 OVC080CB=

USA.gov is the U.S. government's official web portal to all federal, state and local government web resources and services.